Time;durP1;ratioP1;P1;durP2;ratioP2;P2;SDS_P1;SDS_P2;PMS_P1;PMS_P2;Temp;Humidity;BMP_temperature;BMP_pressure;BME280_temperature;BME280_humidity;BME280_pressure;Samples;Min_cycle;Max_cycle;Signal;HPM_P1;HPM_P2
2023/08/08 00:00:09;;;;;;;2.07;1.93;;;;;;;13.96;66.68;98115.94;5049889;28;21035;-77
2023/08/08 00:02:36;;;;;;;1.90;1.80;;;;;;;13.97;66.65;98110.25;5049782;28;20472;-76
2023/08/08 00:05:05;;;;;;;2.90;2.30;;;;;;;13.93;66.70;98098.16;5049524;28;20496;-76
2023/08/08 00:07:32;;;;;;;3.37;1.90;;;;;;;13.88;66.96;98100.72;5050102;28;20804;-76
2023/08/08 00:10:00;;;;;;;2.83;1.80;;;;;;;13.99;66.73;98107.28;5049760;28;20453;-76
2023/08/08 00:12:27;;;;;;;2.40;1.60;;;;;;;13.98;66.57;98101.03;5049681;28;20449;-76
2023/08/08 00:14:54;;;;;;;2.03;1.70;;;;;;;14.01;66.32;98107.91;5049059;28;20468;-76
2023/08/08 00:17:20;;;;;;;2.20;1.70;;;;;;;14.01;65.96;98116.06;5049950;28;20459;-76
2023/08/08 00:19:47;;;;;;;1.80;1.70;;;;;;;14.02;66.13;98107.69;5049641;28;20526;-76
2023/08/08 00:22:14;;;;;;;3.47;2.20;;;;;;;14.00;66.62;98111.69;5049218;28;20492;-76
2023/08/08 00:24:41;;;;;;;1.80;1.60;;;;;;;14.16;65.85;98118.47;5049204;28;20909;-77
2023/08/08 00:27:09;;;;;;;2.00;1.80;;;;;;;14.22;65.96;98112.13;5049390;28;20501;-76
2023/08/08 00:29:36;;;;;;;2.50;1.80;;;;;;;14.18;66.09;98108.19;5049763;28;20449;-76
2023/08/08 00:32:02;;;;;;;1.90;1.67;;;;;;;14.21;65.97;98116.75;5048377;28;20447;-76
2023/08/08 00:34:29;;;;;;;2.63;1.50;;;;;;;14.29;65.71;98107.47;5049369;28;20508;-76
2023/08/08 00:36:56;;;;;;;2.10;1.80;;;;;;;14.35;65.29;98104.66;5048950;28;21026;-76
2023/08/08 00:39:23;;;;;;;1.70;1.60;;;;;;;14.24;65.92;98097.25;5048960;28;20447;-76
2023/08/08 00:41:49;;;;;;;2.10;1.90;;;;;;;14.22;65.88;98095.81;5049509;28;20507;-76
2023/08/08 00:44:18;;;;;;;2.20;1.80;;;;;;;14.29;65.65;98093.84;5048729;28;20988;-77
2023/08/08 00:46:45;;;;;;;2.73;1.70;;;;;;;14.30;65.87;98098.22;5049361;28;20543;-76
2023/08/08 00:49:12;;;;;;;2.10;1.90;;;;;;;14.23;66.26;98092.03;5048817;28;20455;-76
2023/08/08 00:51:39;;;;;;;2.23;1.80;;;;;;;14.29;65.88;98096.59;5049764;28;20457;-76
2023/08/08 00:54:06;;;;;;;1.90;1.80;;;;;;;14.32;65.87;98096.09;5048587;28;20476;-76
2023/08/08 00:56:32;;;;;;;3.13;2.03;;;;;;;14.22;66.37;98087.63;5049375;28;20495;-76
2023/08/08 00:58:59;;;;;;;1.90;1.80;;;;;;;14.25;66.03;98089.91;5049133;28;20484;-76
2023/08/08 01:01:27;;;;;;;1.80;1.60;;;;;;;14.30;65.85;98087.31;5049194;28;20541;-76
2023/08/08 01:03:54;;;;;;;1.90;1.80;;;;;;;14.23;65.98;98073.81;5048626;28;20879;-76
2023/08/08 01:06:25;;;;;;;1.70;1.60;;;;;;;14.35;65.77;98082.03;5049066;28;20537;-76
2023/08/08 01:08:56;;;;;;;2.60;1.83;;;;;;;14.47;65.07;98082.19;5048913;28;20449;-76
2023/08/08 01:11:23;;;;;;;2.30;1.93;;;;;;;14.32;65.83;98080.59;5049125;28;20445;-76
2023/08/08 01:13:51;;;;;;;1.60;1.50;;;;;;;14.47;65.34;98080.28;5048652;28;20489;-76
2023/08/08 01:16:18;;;;;;;1.90;1.80;;;;;;;14.51;65.12;98083.41;5049094;28;20472;-76
2023/08/08 01:18:48;;;;;;;2.50;1.90;;;;;;;14.50;65.25;98077.13;5049009;28;20955;-77
2023/08/08 01:21:15;;;;;;;1.90;1.80;;;;;;;14.52;64.86;98083.16;5048989;28;20531;-76
2023/08/08 01:23:46;;;;;;;2.37;2.17;;;;;;;14.62;64.69;98086.19;5048778;28;20495;-76
2023/08/08 01:26:14;;;;;;;1.97;1.30;;;;;;;14.42;65.18;98074.69;5048975;28;20951;-76
2023/08/08 01:28:43;;;;;;;3.00;1.97;;;;;;;14.57;64.76;98077.88;5048595;28;20857;-76
2023/08/08 01:31:09;;;;;;;1.80;1.70;;;;;;;14.61;64.44;98076.38;5049201;28;20465;-76
2023/08/08 01:33:36;;;;;;;3.20;1.50;;;;;;;14.65;64.31;98079.44;5048089;28;20806;-76
2023/08/08 01:36:13;;;;;;;1.87;1.73;;;;;;;14.56;64.90;98072.66;5048813;28;20941;-76
2023/08/08 01:38:42;;;;;;;1.70;1.60;;;;;;;14.63;64.31;98067.94;5048948;28;20491;-76
2023/08/08 01:41:09;;;;;;;1.50;1.40;;;;;;;14.60;64.36;98071.97;5048805;28;20505;-76
2023/08/08 01:43:38;;;;;;;1.80;1.60;;;;;;;14.66;64.36;98057.44;5051181;28;20542;-76
2023/08/08 01:46:05;;;;;;;1.83;1.53;;;;;;;14.74;64.23;98067.19;5052488;28;20442;-76
2023/08/08 01:48:32;;;;;;;2.60;1.60;;;;;;;14.82;63.98;98066.06;5052811;28;20533;-76
2023/08/08 01:50:59;;;;;;;2.67;1.67;;;;;;;14.75;64.09;98064.25;5052283;28;21016;-76
2023/08/08 01:53:26;;;;;;;1.87;1.60;;;;;;;14.79;63.88;98070.91;5052057;28;20458;-76
2023/08/08 01:55:53;;;;;;;2.33;1.80;;;;;;;14.74;64.19;98069.91;5052393;28;20447;-76
2023/08/08 01:58:19;;;;;;;1.83;1.67;;;;;;;14.71;64.47;98073.91;5052293;28;20521;-76
2023/08/08 02:00:48;;;;;;;2.30;1.60;;;;;;;14.72;64.49;98059.25;5051880;28;20526;-76
2023/08/08 02:03:15;;;;;;;2.77;1.40;;;;;;;14.68;64.76;98055.31;5052255;28;20490;-77
2023/08/08 02:05:42;;;;;;;1.90;1.70;;;;;;;14.77;64.67;98061.28;5051916;28;20467;-76
2023/08/08 02:08:09;;;;;;;2.37;1.53;;;;;;;14.73;64.89;98066.34;5052209;28;20473;-76
2023/08/08 02:10:36;;;;;;;1.57;1.47;;;;;;;14.66;65.04;98043.81;5052311;28;20529;-76
2023/08/08 02:13:02;;;;;;;3.00;1.87;;;;;;;14.70;65.14;98050.47;5052007;28;21008;-76
2023/08/08 02:15:29;;;;;;;2.00;1.67;;;;;;;14.49;65.73;98059.09;5052071;28;20876;-76
2023/08/08 02:17:57;;;;;;;1.60;1.50;;;;;;;14.48;65.93;98059.34;5051941;28;20489;-76
2023/08/08 02:20:24;;;;;;;2.30;1.73;;;;;;;14.50;65.94;98051.78;5052170;28;20483;-76
2023/08/08 02:22:51;;;;;;;2.80;1.80;;;;;;;14.51;66.07;98050.72;5051812;28;21068;-76
2023/08/08 02:25:18;;;;;;;2.97;2.10;;;;;;;14.54;66.06;98051.09;5051338;28;20465;-76
2023/08/08 02:27:44;;;;;;;3.13;1.50;;;;;;;14.50;65.88;98049.88;5052006;28;20531;-76
2023/08/08 02:30:13;;;;;;;2.27;2.07;;;;;;;14.57;65.92;98049.81;5051447;28;21014;-76
2023/08/08 02:32:39;;;;;;;2.10;1.77;;;;;;;14.38;66.57;98040.75;5050422;28;20454;-76
2023/08/08 02:35:09;;;;;;;1.50;1.40;;;;;;;14.26;66.76;98050.75;5050249;28;20510;-76
2023/08/08 02:37:36;;;;;;;2.27;2.00;;;;;;;14.27;66.66;98046.97;5051783;28;20455;-76
2023/08/08 02:40:02;;;;;;;2.37;1.60;;;;;;;14.28;66.94;98056.81;5051884;28;20934;-76
2023/08/08 02:42:29;;;;;;;2.17;1.73;;;;;;;14.23;67.13;98053.91;5051323;28;20509;-76
2023/08/08 02:44:56;;;;;;;1.67;1.57;;;;;;;14.13;67.42;98044.38;5050918;28;20860;-76
2023/08/08 02:47:23;;;;;;;1.67;1.43;;;;;;;14.10;67.31;98050.25;5051346;28;20477;-76
2023/08/08 02:49:50;;;;;;;2.03;1.83;;;;;;;14.19;66.87;98045.38;5051520;28;20460;-76
2023/08/08 02:52:18;;;;;;;3.10;1.90;;;;;;;14.11;67.39;98051.09;5051113;28;20531;-76
2023/08/08 02:54:45;;;;;;;2.30;2.10;;;;;;;14.20;67.12;98048.91;5049913;28;20477;-76
2023/08/08 02:57:12;;;;;;;1.97;1.87;;;;;;;14.18;67.02;98051.03;5051358;28;20499;-76
2023/08/08 02:59:39;;;;;;;1.73;1.60;;;;;;;14.03;67.53;98056.81;5051278;28;20484;-76
2023/08/08 03:02:06;;;;;;;2.13;1.40;;;;;;;14.04;67.30;98056.59;5051231;28;20456;-76
2023/08/08 03:04:32;;;;;;;1.97;1.60;;;;;;;14.02;67.31;98057.88;5050436;28;20486;-77
2023/08/08 03:07:01;;;;;;;2.47;1.80;;;;;;;13.87;67.90;98055.50;5051012;28;20444;-76
2023/08/08 03:09:29;;;;;;;4.53;1.90;;;;;;;13.88;67.99;98056.34;5050501;28;20455;-76
2023/08/08 03:11:55;;;;;;;3.33;2.20;;;;;;;13.86;68.04;98053.00;5051016;28;20454;-76
2023/08/08 03:14:22;;;;;;;3.53;1.77;;;;;;;13.79;68.55;98048.44;5050406;28;20555;-76
2023/08/08 03:16:49;;;;;;;2.87;1.93;;;;;;;13.82;68.73;98044.47;5050682;28;20943;-77
2023/08/08 03:19:16;;;;;;;3.30;1.80;;;;;;;13.76;68.77;98037.19;5050984;28;20483;-77
2023/08/08 03:21:43;;;;;;;2.00;1.80;;;;;;;13.83;68.59;98042.56;5050624;28;20457;-76
2023/08/08 03:24:09;;;;;;;2.40;1.53;;;;;;;13.87;68.18;98044.63;5050133;28;20836;-76
2023/08/08 03:26:38;;;;;;;2.20;1.93;;;;;;;13.89;68.18;98044.41;5050566;28;20544;-76
2023/08/08 03:29:04;;;;;;;2.70;1.80;;;;;;;13.76;68.97;98042.63;5050281;28;21051;-76
2023/08/08 03:31:31;;;;;;;2.30;1.70;;;;;;;13.76;68.83;98048.06;5050642;28;20509;-76
2023/08/08 03:33:58;;;;;;;2.58;1.80;;;;;;;13.65;69.10;98049.59;5050123;28;20671;-76
2023/08/08 03:36:25;;;;;;;1.90;1.70;;;;;;;13.64;69.60;98044.41;5050315;28;20210;-76
2023/08/08 03:38:51;;;;;;;4.17;2.10;;;;;;;13.61;69.54;98039.41;5050618;28;20448;-76
2023/08/08 03:41:18;;;;;;;1.93;1.60;;;;;;;13.61;69.76;98050.28;5050359;28;20918;-76
2023/08/08 03:43:46;;;;;;;1.87;1.77;;;;;;;13.72;69.06;98052.28;5049856;28;20519;-76
2023/08/08 03:46:13;;;;;;;2.07;1.83;;;;;;;13.78;68.75;98051.41;5050252;28;20519;-76
2023/08/08 03:48:40;;;;;;;1.87;1.70;;;;;;;13.82;68.50;98047.19;5050274;28;20530;-76
2023/08/08 03:51:07;;;;;;;2.27;1.60;;;;;;;13.85;68.40;98051.34;5049829;28;20866;-76
2023/08/08 03:53:34;;;;;;;2.70;1.90;;;;;;;13.83;68.30;98043.41;5049997;28;20526;-76
2023/08/08 03:56:01;;;;;;;1.70;1.60;;;;;;;13.88;68.36;98051.72;5050221;28;20852;-77
2023/08/08 03:58:27;;;;;;;1.90;1.60;;;;;;;13.96;68.08;98046.00;5050033;28;20932;-76
2023/08/08 04:00:56;;;;;;;2.87;1.70;;;;;;;13.98;67.87;98045.75;5049699;28;20965;-76
2023/08/08 04:03:23;;;;;;;1.87;1.70;;;;;;;14.09;67.73;98054.03;5049455;28;20499;-76
2023/08/08 04:05:50;;;;;;;6.53;2.57;;;;;;;13.98;68.22;98043.88;5049544;28;20556;-76
2023/08/08 04:08:17;;;;;;;2.30;2.00;;;;;;;14.23;67.94;98043.88;5050024;28;20446;-77
2023/08/08 04:10:44;;;;;;;2.07;1.63;;;;;;;14.25;67.71;98051.81;5049703;28;20491;-76
2023/08/08 04:13:11;;;;;;;2.90;1.77;;;;;;;14.21;68.10;98047.88;5049684;28;20460;-76
2023/08/08 04:15:38;;;;;;;2.67;1.90;;;;;;;14.35;67.54;98046.66;5049206;28;20456;-76
2023/08/08 04:18:07;;;;;;;2.30;2.10;;;;;;;14.34;67.20;98040.38;5049334;28;20457;-76
2023/08/08 04:20:34;;;;;;;2.63;1.97;;;;;;;14.15;67.65;98040.59;5049912;28;20533;-75
2023/08/08 04:23:00;;;;;;;1.97;1.87;;;;;;;14.18;67.10;98045.59;5049632;28;20940;-76
2023/08/08 04:25:28;;;;;;;1.97;1.80;;;;;;;14.21;67.38;98045.13;5049202;28;20560;-76
2023/08/08 04:27:55;;;;;;;2.63;2.30;;;;;;;14.29;67.01;98048.41;5049446;28;20446;-76
2023/08/08 04:30:22;;;;;;;3.20;2.00;;;;;;;14.09;67.79;98040.44;5049232;28;20434;-76
2023/08/08 04:32:49;;;;;;;1.80;1.70;;;;;;;14.26;67.61;98057.03;5049325;28;20496;-77
2023/08/08 04:35:17;;;;;;;1.90;1.80;;;;;;;14.12;68.26;98053.59;5048967;28;20585;-77
2023/08/08 04:37:44;;;;;;;2.53;1.80;;;;;;;14.29;67.86;98051.13;5049642;28;20448;-77
2023/08/08 04:40:11;;;;;;;1.80;1.70;;;;;;;14.11;68.75;98057.38;5049265;28;20513;-76
2023/08/08 04:42:38;;;;;;;1.90;1.70;;;;;;;13.83;68.59;98016.19;5048883;28;20437;-76
2023/08/08 04:45:07;;;;;;;2.30;1.73;;;;;;;14.02;69.10;98064.16;5048717;28;20994;-76
2023/08/08 04:47:33;;;;;;;2.40;1.60;;;;;;;14.07;69.37;98060.75;5048877;28;20449;-76
2023/08/08 04:50:00;;;;;;;1.93;1.70;;;;;;;14.04;69.11;98062.03;5049133;28;20451;-76
2023/08/08 04:52:28;;;;;;;2.00;1.73;;;;;;;14.03;69.39;98062.25;5048976;28;20532;-76
2023/08/08 04:54:55;;;;;;;2.57;1.90;;;;;;;14.06;69.00;98068.09;5048840;28;21039;-76
2023/08/08 04:57:22;;;;;;;2.70;1.90;;;;;;;14.03;69.03;98063.09;5048937;28;20501;-76
2023/08/08 04:59:49;;;;;;;2.23;2.00;;;;;;;14.08;68.76;98059.69;5049055;28;20519;-76
2023/08/08 05:02:16;;;;;;;1.87;1.63;;;;;;;14.07;68.85;98053.44;5049147;28;20454;-77
2023/08/08 05:04:43;;;;;;;3.07;2.10;;;;;;;14.05;68.79;98051.97;5048894;28;20609;-76
2023/08/08 05:07:09;;;;;;;2.70;1.77;;;;;;;14.16;68.31;98059.41;5049079;28;20481;-76
2023/08/08 05:09:37;;;;;;;1.87;1.77;;;;;;;14.24;67.81;98055.59;5049178;28;20453;-76
2023/08/08 05:12:05;;;;;;;2.00;1.70;;;;;;;14.25;67.27;98051.81;5049076;28;20468;-76
2023/08/08 05:14:32;;;;;;;1.50;1.40;;;;;;;14.39;67.30;98047.88;5048318;28;20857;-77
2023/08/08 05:16:59;;;;;;;2.00;1.80;;;;;;;14.35;67.19;98043.94;5049199;28;20505;-76
2023/08/08 05:19:26;;;;;;;2.20;1.50;;;;;;;14.41;66.65;98046.63;5052947;28;20451;-76
2023/08/08 05:21:52;;;;;;;1.43;1.33;;;;;;;14.51;66.47;98048.00;5053020;28;20516;-76
2023/08/08 05:24:19;;;;;;;1.83;1.70;;;;;;;14.49;66.34;98050.94;5052700;28;20594;-76
2023/08/08 05:26:47;;;;;;;1.80;1.70;;;;;;;14.57;66.11;98053.38;5052567;28;20550;-76
2023/08/08 05:29:14;;;;;;;1.97;1.77;;;;;;;14.67;65.80;98048.19;5052813;28;20457;-76
2023/08/08 05:31:41;;;;;;;2.37;1.47;;;;;;;14.75;65.64;98058.78;5052658;28;20476;-76
2023/08/08 05:34:08;;;;;;;1.67;1.57;;;;;;;14.48;65.61;98023.94;5052283;28;20510;-76
2023/08/08 05:36:34;;;;;;;2.13;1.80;;;;;;;14.52;66.84;98060.53;5052792;28;20532;-76
2023/08/08 05:39:01;;;;;;;1.93;1.73;;;;;;;14.69;65.89;98039.78;5051943;28;20487;-76
2023/08/08 05:41:28;;;;;;;2.53;1.80;;;;;;;14.92;65.56;98063.63;5052240;28;20454;-76
2023/08/08 05:43:56;;;;;;;3.30;1.60;;;;;;;14.88;65.49;98063.25;5051821;28;20999;-77
2023/08/08 05:46:23;;;;;;;2.73;1.87;;;;;;;14.76;66.05;98071.34;5052543;28;20457;-76
2023/08/08 05:48:50;;;;;;;2.03;1.70;;;;;;;14.95;65.92;98072.16;5052296;28;20497;-76
2023/08/08 05:51:16;;;;;;;3.50;1.93;;;;;;;14.94;65.70;98073.25;5052314;28;20942;-76
2023/08/08 05:53:43;;;;;;;3.17;1.97;;;;;;;15.04;65.53;98072.69;5051980;28;20544;-76
2023/08/08 05:56:10;;;;;;;3.13;1.77;;;;;;;15.00;66.10;98076.91;5052103;28;20845;-77
2023/08/08 05:58:37;;;;;;;2.07;1.70;;;;;;;14.90;66.46;98072.03;5051376;28;20452;-76
2023/08/08 06:01:06;;;;;;;2.20;2.00;;;;;;;15.14;66.00;98081.16;5051856;28;20468;-77
2023/08/08 06:03:33;;;;;;;1.93;1.80;;;;;;;15.19;66.17;98080.47;5051861;28;20464;-76
2023/08/08 06:05:59;;;;;;;2.70;2.00;;;;;;;15.21;65.98;98079.16;5052274;28;20528;-76
2023/08/08 06:08:26;;;;;;;1.63;1.50;;;;;;;15.00;66.21;98071.47;5052304;28;20446;-76
2023/08/08 06:10:53;;;;;;;1.60;1.50;;;;;;;15.17;65.68;98080.69;5051683;28;20949;-76
2023/08/08 06:13:20;;;;;;;2.70;1.77;;;;;;;15.31;65.03;98073.97;5051726;28;20489;-76
2023/08/08 06:15:46;;;;;;;2.00;1.67;;;;;;;15.21;65.32;98072.88;5051756;28;21080;-76
2023/08/08 06:18:15;;;;;;;2.80;1.90;;;;;;;15.44;64.81;98064.78;5051342;28;20807;-77
2023/08/08 06:20:41;;;;;;;2.17;1.97;;;;;;;15.60;64.15;98071.47;5052018;28;20443;-76
2023/08/08 06:23:08;;;;;;;4.50;2.30;;;;;;;15.58;64.06;98073.63;5051535;28;20451;-77
2023/08/08 06:25:35;;;;;;;2.13;1.90;;;;;;;15.59;64.24;98070.69;5050832;28;20577;-76
2023/08/08 06:28:02;;;;;;;2.50;2.00;;;;;;;15.79;63.59;98073.09;5051548;28;20501;-77
2023/08/08 06:30:29;;;;;;;2.70;1.90;;;;;;;16.03;62.82;98071.22;5050760;28;20458;-77
2023/08/08 06:32:55;;;;;;;2.20;1.90;;;;;;;16.12;62.68;98070.63;5051446;28;20439;-77
2023/08/08 06:35:23;;;;;;;1.70;1.60;;;;;;;16.36;62.08;98065.16;5051244;28;20858;-76
2023/08/08 06:37:50;;;;;;;1.77;1.63;;;;;;;16.47;61.03;98067.06;5051343;28;20489;-77
2023/08/08 06:40:17;;;;;;;1.43;1.33;;;;;;;16.76;60.38;98068.81;5051392;28;20593;-77
2023/08/08 06:42:44;;;;;;;1.67;1.47;;;;;;;16.65;60.58;98068.84;5051755;28;20886;-77
2023/08/08 06:45:11;;;;;;;6.17;1.83;;;;;;;16.56;60.69;98065.63;5050759;28;20487;-77
2023/08/08 06:47:38;;;;;;;2.63;1.60;;;;;;;16.60;60.49;98066.78;5051506;28;21111;-77
2023/08/08 06:50:05;;;;;;;2.43;1.97;;;;;;;16.52;60.82;98064.44;5051113;28;20447;-76
2023/08/08 06:52:33;;;;;;;2.23;1.70;;;;;;;16.74;60.53;98070.97;5051039;28;20451;-77
2023/08/08 06:55:01;;;;;;;3.90;1.90;;;;;;;16.74;60.25;98057.28;5050812;28;20566;-77
2023/08/08 06:57:27;;;;;;;1.93;1.80;;;;;;;17.30;59.78;98061.13;5051251;28;20538;-77
2023/08/08 06:59:54;;;;;;;2.27;1.80;;;;;;;17.30;58.49;98060.31;5050800;28;20891;-77
2023/08/08 07:02:21;;;;;;;2.70;1.50;;;;;;;17.49;58.77;98059.03;5050782;28;21352;-76
2023/08/08 07:04:48;;;;;;;2.10;2.00;;;;;;;17.79;57.27;98058.78;5050514;28;20495;-77
2023/08/08 07:07:14;;;;;;;2.53;1.80;;;;;;;18.16;56.58;98064.59;5050697;28;20440;-77
2023/08/08 07:09:43;;;;;;;1.53;1.40;;;;;;;18.41;56.21;98064.13;5051266;28;20535;-76
2023/08/08 07:12:09;;;;;;;2.40;1.30;;;;;;;18.39;54.65;98055.34;5050922;28;20482;-76
2023/08/08 07:14:36;;;;;;;2.37;1.90;;;;;;;18.31;53.90;98053.00;5050133;28;20563;-76
2023/08/08 07:17:04;;;;;;;1.73;1.63;;;;;;;18.64;54.00;98058.47;5050566;28;20935;-77
2023/08/08 07:19:31;;;;;;;1.50;1.40;;;;;;;18.38;52.38;98054.50;5050593;28;20447;-77
2023/08/08 07:21:58;;;;;;;3.93;1.60;;;;;;;18.62;52.89;98062.53;5050928;28;20464;-77
2023/08/08 07:24:28;;;;;;;1.97;1.40;;;;;;;18.38;52.64;98059.16;5050226;28;20471;-77
2023/08/08 07:26:56;;;;;;;4.20;1.50;;;;;;;18.27;53.48;98071.03;5050782;28;20466;-77
2023/08/08 07:29:23;;;;;;;2.00;1.53;;;;;;;18.30;53.13;98059.56;5050741;28;20497;-77
2023/08/08 07:31:50;;;;;;;1.60;1.50;;;;;;;18.51;51.81;98056.06;5050249;28;20498;-77
2023/08/08 07:34:16;;;;;;;1.87;1.60;;;;;;;19.11;51.22;98052.47;5050404;28;20554;-77
2023/08/08 07:36:43;;;;;;;2.37;1.80;;;;;;;19.55;50.26;98061.47;5050574;28;20516;-77
2023/08/08 07:39:10;;;;;;;1.43;1.33;;;;;;;19.76;48.95;98055.09;5050404;28;20529;-77
2023/08/08 07:41:37;;;;;;;2.67;1.70;;;;;;;20.20;48.29;98051.31;5049545;28;20886;-77
2023/08/08 07:44:05;;;;;;;1.73;1.33;;;;;;;19.99;48.75;98053.94;5049973;28;20504;-77
2023/08/08 07:46:33;;;;;;;3.00;1.80;;;;;;;19.99;48.59;98053.94;5049645;28;20852;-77
2023/08/08 07:49:03;;;;;;;2.17;1.53;;;;;;;20.45;48.32;98051.56;5050173;28;20485;-77
2023/08/08 07:51:30;;;;;;;1.90;1.80;;;;;;;20.91;47.38;98040.75;5050031;28;20473;-77
2023/08/08 07:53:57;;;;;;;3.10;1.70;;;;;;;20.92;47.50;98042.41;5049726;28;20510;-77
2023/08/08 07:56:24;;;;;;;1.70;1.60;;;;;;;20.65;47.57;98037.91;5050086;28;20466;-77
2023/08/08 07:58:50;;;;;;;3.30;1.70;;;;;;;20.67;48.33;98030.22;5049789;28;20850;-77
2023/08/08 08:01:19;;;;;;;1.73;1.63;;;;;;;20.60;48.66;98037.88;5050380;28;20546;-77
2023/08/08 08:03:46;;;;;;;2.70;1.40;;;;;;;20.22;49.14;98027.97;5049495;28;20470;-77
2023/08/08 08:06:13;;;;;;;2.53;1.40;;;;;;;19.33;51.15;98045.03;5049660;28;20572;-77
2023/08/08 08:08:40;;;;;;;2.03;1.73;;;;;;;19.44;50.59;98046.81;5050068;28;20542;-76
2023/08/08 08:11:06;;;;;;;2.17;1.77;;;;;;;19.63;49.98;98040.97;5050115;28;20441;-77
2023/08/08 08:13:33;;;;;;;1.90;1.70;;;;;;;19.34;50.48;98037.63;5049202;28;20559;-77
2023/08/08 08:16:00;;;;;;;2.10;1.40;;;;;;;18.95;51.34;98039.66;5049590;28;20963;-77
2023/08/08 08:18:29;;;;;;;2.27;2.00;;;;;;;18.54;52.92;98038.25;5049939;28;20446;-77
2023/08/08 08:20:56;;;;;;;1.50;1.40;;;;;;;18.64;51.82;98032.94;5049508;28;20816;-77
2023/08/08 08:23:23;;;;;;;2.63;1.27;;;;;;;18.96;51.41;98041.31;5049687;28;20546;-77
2023/08/08 08:25:50;;;;;;;1.90;1.50;;;;;;;19.01;50.82;98033.16;5049431;28;20579;-77
2023/08/08 08:28:17;;;;;;;1.77;1.30;;;;;;;18.79;50.74;98030.41;5049663;28;20551;-77
2023/08/08 08:30:44;;;;;;;1.70;1.53;;;;;;;18.90;50.56;98036.84;5049383;28;20965;-77
2023/08/08 08:33:11;;;;;;;1.50;1.40;;;;;;;19.07;48.34;98040.34;5049131;28;20459;-77
2023/08/08 08:35:39;;;;;;;2.17;1.20;;;;;;;19.56;48.66;98026.63;5049337;28;20447;-77
2023/08/08 08:38:07;;;;;;;2.53;1.40;;;;;;;19.89;48.70;98034.59;5049540;28;20444;-77
2023/08/08 08:40:37;;;;;;;2.23;1.30;;;;;;;19.97;48.29;98036.88;5049433;28;20502;-77
2023/08/08 08:43:05;;;;;;;1.87;1.53;;;;;;;19.90;47.33;98025.28;5049522;28;20451;-77
2023/08/08 08:45:32;;;;;;;1.70;1.40;;;;;;;20.33;44.91;98029.72;5049356;28;21178;-77
2023/08/08 08:48:00;;;;;;;1.87;1.50;;;;;;;20.13;45.12;98029.59;5049256;28;20447;-77
2023/08/08 08:50:28;;;;;;;1.60;1.50;;;;;;;20.23;45.33;98017.81;5049351;28;20491;-77
2023/08/08 08:52:57;;;;;;;1.73;1.53;;;;;;;20.10;44.92;98025.44;5048728;28;20510;-77
2023/08/08 08:55:24;;;;;;;2.07;1.43;;;;;;;19.96;44.58;98035.22;5048695;28;20459;-77
2023/08/08 08:57:51;;;;;;;1.90;1.73;;;;;;;19.88;45.00;98038.44;5049241;28;20965;-77
2023/08/08 09:00:18;;;;;;;1.50;1.40;;;;;;;20.10;44.53;98038.34;5049206;28;20451;-77
2023/08/08 09:02:45;;;;;;;4.30;1.53;;;;;;;20.45;43.58;98016.63;5049098;28;20434;-77
2023/08/08 09:05:12;;;;;;;2.40;1.50;;;;;;;20.20;43.73;98010.09;5048899;28;20661;-77
2023/08/08 09:07:41;;;;;;;2.63;1.40;;;;;;;20.49;44.36;98016.91;5048584;28;20841;-77
2023/08/08 09:10:09;;;;;;;1.83;1.57;;;;;;;20.70;43.26;98013.19;5049062;28;20500;-77
2023/08/08 09:12:36;;;;;;;2.43;1.37;;;;;;;21.14;42.97;98015.53;5049140;28;21061;-77
2023/08/08 09:15:05;;;;;;;4.33;1.83;;;;;;;21.03;42.55;97994.59;5048736;28;20465;-77
2023/08/08 09:17:32;;;;;;;1.40;1.30;;;;;;;21.11;42.23;98007.84;5048671;28;20443;-77
2023/08/08 09:19:58;;;;;;;1.73;1.30;;;;;;;21.76;41.43;98003.56;5048898;28;20950;-77
2023/08/08 09:22:26;;;;;;;1.53;1.43;;;;;;;21.56;41.29;98014.56;5048526;28;20947;-77
2023/08/08 09:24:53;;;;;;;1.30;1.20;;;;;;;20.63;42.88;98009.84;5048477;28;20942;-78
2023/08/08 09:27:22;;;;;;;1.80;1.60;;;;;;;20.40;44.85;98007.53;5049394;28;20522;-77
2023/08/08 09:29:49;;;;;;;1.97;1.33;;;;;;;20.33;43.78;98002.22;5049284;28;20520;-77
2023/08/08 09:32:17;;;;;;;1.80;1.43;;;;;;;21.06;42.69;98005.06;5048693;28;20850;-77
2023/08/08 09:34:45;;;;;;;1.63;1.47;;;;;;;21.94;41.42;98000.25;5048340;28;20985;-77
2023/08/08 09:37:14;;;;;;;1.57;1.33;;;;;;;21.69;40.24;97991.97;5048582;28;20957;-77
2023/08/08 09:39:41;;;;;;;1.87;1.30;;;;;;;21.63;40.66;97993.06;5048868;28;20554;-77
2023/08/08 09:42:08;;;;;;;2.63;1.60;;;;;;;21.24;41.41;97992.75;5048975;28;20483;-77
2023/08/08 09:44:36;;;;;;;1.70;1.40;;;;;;;21.57;41.42;97988.66;5048537;28;20471;-77
2023/08/08 09:47:03;;;;;;;1.93;1.50;;;;;;;21.28;41.05;97988.34;5048721;28;20582;-77
2023/08/08 09:49:31;;;;;;;2.27;1.33;;;;;;;22.02;39.84;97985.94;5048653;28;20435;-77
2023/08/08 09:51:59;;;;;;;1.80;1.30;;;;;;;21.53;41.35;97982.03;5048992;28;20446;-77
2023/08/08 09:54:26;;;;;;;1.80;1.20;;;;;;;22.07;40.51;97985.94;5048561;28;20534;-77
2023/08/08 09:56:52;;;;;;;2.30;1.50;;;;;;;22.54;39.60;97975.63;5047869;28;21376;-77
2023/08/08 09:59:20;;;;;;;1.50;1.27;;;;;;;22.89;38.13;97977.44;5049151;28;20479;-77
2023/08/08 10:01:49;;;;;;;1.53;1.30;;;;;;;23.23;36.53;97978.34;5048968;28;20499;-77
2023/08/08 10:04:15;;;;;;;3.53;1.40;;;;;;;23.72;36.05;97974.72;5050811;28;20556;-77
2023/08/08 10:06:42;;;;;;;1.60;1.50;;;;;;;23.76;36.94;97973.84;5052338;28;20593;-77
2023/08/08 10:09:09;;;;;;;1.60;1.43;;;;;;;22.70;37.29;97969.78;5052326;28;20509;-77
2023/08/08 10:11:37;;;;;;;1.70;1.53;;;;;;;22.56;38.26;97978.91;5052129;28;20445;-77
2023/08/08 10:14:04;;;;;;;2.27;1.40;;;;;;;22.72;36.15;97978.59;5051511;28;20475;-77
2023/08/08 10:16:33;;;;;;;3.87;1.40;;;;;;;22.81;36.98;97969.75;5051935;28;20458;-77
2023/08/08 10:19:04;;;;;;;2.17;1.37;;;;;;;22.48;37.15;97974.78;5052211;28;20447;-77
2023/08/08 10:21:34;;;;;;;1.37;1.10;;;;;;;23.00;36.51;97979.03;5052069;28;20531;-77
2023/08/08 10:24:05;;;;;;;3.73;1.50;;;;;;;23.03;35.60;97978.47;5051465;28;20499;-77
2023/08/08 10:26:32;;;;;;;2.10;1.30;;;;;;;22.62;36.44;97984.13;5051675;28;20491;-77
2023/08/08 10:29:00;;;;;;;2.20;1.30;;;;;;;22.95;35.42;97985.41;5051622;28;20454;-77
2023/08/08 10:31:28;;;;;;;1.87;1.40;;;;;;;23.55;33.73;97979.84;5051996;28;20615;-77
2023/08/08 10:34:04;;;;;;;1.40;1.10;;;;;;;24.30;32.52;97960.94;5051226;28;20553;-77
2023/08/08 10:36:44;;;;;;;1.80;1.37;;;;;;;23.94;33.08;97979.81;5052060;28;20455;-77
2023/08/08 10:39:16;;;;;;;2.00;1.30;;;;;;;23.79;32.35;97959.44;5051354;28;20890;-77
2023/08/08 10:41:46;;;;;;;2.53;1.03;;;;;;;23.30;33.85;97983.56;5051758;28;20470;-77
2023/08/08 10:44:13;;;;;;;1.87;1.40;;;;;;;23.39;32.52;97987.38;5051539;28;20462;-77
2023/08/08 10:46:42;;;;;;;1.77;1.43;;;;;;;23.87;31.67;97974.59;5051451;28;20484;-77
2023/08/08 10:49:12;;;;;;;1.77;1.47;;;;;;;23.92;30.88;97971.78;5051483;28;20470;-77
2023/08/08 10:51:43;;;;;;;1.40;1.20;;;;;;;23.73;32.40;97970.84;5051222;28;20454;-77
2023/08/08 10:54:13;;;;;;;2.00;1.13;;;;;;;23.58;32.98;97969.03;5051276;28;20496;-77
2023/08/08 10:56:40;;;;;;;1.30;1.20;;;;;;;23.70;32.46;97976.97;5051410;28;20481;-77
2023/08/08 10:59:15;;;;;;;1.33;1.17;;;;;;;24.34;31.75;97965.59;5051259;28;20795;-77
2023/08/08 11:01:42;;;;;;;1.47;1.17;;;;;;;24.34;32.01;97959.25;5051657;28;20454;-76
2023/08/08 11:04:11;;;;;;;1.50;1.40;;;;;;;24.40;30.61;97963.59;5050519;28;20469;-76
2023/08/08 11:06:38;;;;;;;1.53;1.30;;;;;;;24.59;30.90;97970.03;5050945;28;20487;-77
2023/08/08 11:09:06;;;;;;;1.10;1.00;;;;;;;24.96;29.78;97957.41;5051197;28;20550;-77
2023/08/08 11:11:37;;;;;;;1.43;1.27;;;;;;;25.44;30.42;97956.16;5051298;28;20443;-77
2023/08/08 11:14:10;;;;;;;1.40;1.30;;;;;;;25.32;30.09;97952.19;5050729;28;20481;-77
2023/08/08 11:16:37;;;;;;;1.20;1.10;;;;;;;25.07;30.39;97956.97;5050611;28;20832;-77
2023/08/08 11:19:05;;;;;;;1.63;1.50;;;;;;;24.88;28.47;97952.50;5051076;28;20447;-77
2023/08/08 11:21:36;;;;;;;1.20;1.10;;;;;;;25.07;28.28;97958.91;5051154;28;20483;-76
2023/08/08 11:24:04;;;;;;;1.50;1.30;;;;;;;24.08;29.82;97961.41;5050712;28;20621;-76
2023/08/08 11:26:32;;;;;;;2.07;1.40;;;;;;;24.65;30.07;97955.00;5051020;28;20533;-77
2023/08/08 11:28:59;;;;;;;2.13;1.80;;;;;;;24.93;30.95;97944.13;5050964;28;20439;-76
2023/08/08 11:31:26;;;;;;;2.20;1.70;;;;;;;24.89;30.98;97949.44;5050221;28;21029;-77
2023/08/08 11:33:53;;;;;;;1.67;1.10;;;;;;;23.79;33.21;97959.44;5050435;28;20467;-77